Time;durP1;ratioP1;P1;durP2;ratioP2;P2;SDS_P1;SDS_P2;PMS_P1;PMS_P2;Temp;Humidity;BMP_temperature;BMP_pressure;BME280_temperature;BME280_humidity;BME280_pressure;Samples;Min_cycle;Max_cycle;Signal;HPM_P1;HPM_P2
2023/05/20 00:01:56;;;;;;;;;22.33;14.00;;;;;14.75;65.81;101972.31;5060214;28;45370;-71
2023/05/20 00:04:21;;;;;;;;;13.33;12.00;;;;;14.80;64.73;101988.94;5057777;28;45378;-71
2023/05/20 00:06:46;;;;;;;;;17.33;14.67;;;;;14.78;64.23;101995.28;5055316;28;48119;-72
2023/05/20 00:09:12;;;;;;;;;13.67;13.00;;;;;14.72;65.24;101988.44;5047979;28;45310;-71
2023/05/20 00:11:37;;;;;;;;;10.67;10.00;;;;;14.66;65.80;101978.03;5050247;28;45309;-71
2023/05/20 00:14:03;;;;;;;;;16.67;14.00;;;;;14.66;65.10;101980.69;5058461;28;45656;-71
2023/05/20 00:16:28;;;;;;;;;16.67;14.33;;;;;14.68;65.41;101972.66;5059096;28;47170;-71
2023/05/20 00:18:55;;;;;;;;;14.00;12.67;;;;;14.68;64.77;101977.97;5060466;28;45188;-71
2023/05/20 00:21:21;;;;;;;;;16.33;16.00;;;;;14.72;66.69;101984.91;5059363;28;45188;-71
2023/05/20 00:23:46;;;;;;;;;19.67;14.00;;;;;14.74;65.94;101981.22;5058409;28;45358;-72
2023/05/20 00:26:11;;;;;;;;;16.00;13.33;;;;;14.70;66.01;101974.31;5064046;28;45316;-71
2023/05/20 00:28:37;;;;;;;;;13.67;13.00;;;;;14.72;65.83;101967.13;5063672;28;45381;-71
2023/05/20 00:31:03;;;;;;;;;15.00;13.00;;;;;14.70;66.85;101981.41;5054069;28;45293;-71
2023/05/20 00:33:29;;;;;;;;;16.33;13.33;;;;;14.73;67.13;101970.63;5049520;28;45481;-71
2023/05/20 00:35:54;;;;;;;;;11.33;11.33;;;;;14.69;65.43;101966.41;5060233;28;45496;-71
2023/05/20 00:38:19;;;;;;;;;7.33;7.33;;;;;14.68;66.71;101965.53;5058290;28;45279;-71
2023/05/20 00:40:45;;;;;;;;;14.67;13.00;;;;;14.66;66.93;101969.22;5057905;28;45322;-71
2023/05/20 00:43:10;;;;;;;;;13.00;13.00;;;;;14.70;65.80;101966.31;5054320;28;45231;-71
2023/05/20 00:45:36;;;;;;;;;14.00;14.00;;;;;14.59;64.90;101958.81;5059870;28;45433;-71
2023/05/20 00:48:02;;;;;;;;;15.67;14.00;;;;;14.66;66.21;101969.22;5050708;28;45451;-71
2023/05/20 00:50:28;;;;;;;;;14.00;14.00;;;;;14.61;66.74;101958.75;5073629;27;45910;-71
2023/05/20 00:52:54;;;;;;;;;17.00;13.00;;;;;14.58;66.17;101954.44;5051261;28;45428;-71
2023/05/20 00:55:20;;;;;;;;;13.00;11.67;;;;;14.52;65.42;101962.72;5051237;28;45378;-71
2023/05/20 00:57:47;;;;;;;;;14.33;14.00;;;;;14.47;65.51;101956.72;5053661;28;45239;-71
2023/05/20 01:00:13;;;;;;;;;15.67;11.33;;;;;14.45;66.12;101957.72;5062428;28;45391;-71
2023/05/20 01:02:38;;;;;;;;;14.00;11.33;;;;;14.43;65.86;101949.78;5043519;28;45501;-71
2023/05/20 01:05:04;;;;;;;;;18.00;14.67;;;;;14.43;65.56;101948.94;5058215;28;45407;-71
2023/05/20 01:07:30;;;;;;;;;17.67;13.00;;;;;14.39;67.28;101948.22;5055410;28;45330;-71
2023/05/20 01:09:55;;;;;;;;;16.67;13.33;;;;;14.38;66.40;101940.28;5060073;28;45459;-71
2023/05/20 01:12:39;;;;;;;;;16.33;14.33;;;;;14.30;66.63;101940.59;5057416;28;45394;-71
2023/05/20 01:15:09;;;;;;;;;16.00;12.67;;;;;14.31;67.95;101946.78;5059273;28;46050;-72
2023/05/20 01:17:38;;;;;;;;;14.00;10.25;;;;;14.30;66.97;101934.44;5055330;28;45445;-72
2023/05/20 01:20:08;;;;;;;;;15.00;13.67;;;;;14.07;67.86;101898.16;5058738;28;45402;-72
2023/05/20 01:22:55;;;;;;;;;15.67;14.67;;;;;14.17;67.68;101926.09;5060241;28;45239;-71
2023/05/20 01:25:21;;;;;;;;;17.00;13.33;;;;;14.15;67.82;101930.63;5047855;28;46210;-72
2023/05/20 01:27:50;;;;;;;;;16.33;12.33;;;;;14.16;68.08;101929.72;5055858;28;45524;-71
2023/05/20 01:30:16;;;;;;;;;15.33;14.00;;;;;14.14;68.68;101928.91;5049892;28;45382;-72
2023/05/20 01:32:47;;;;;;;;;16.67;12.33;;;;;14.14;67.92;101933.34;5053628;28;45266;-72
2023/05/20 01:35:14;;;;;;;;;15.75;14.75;;;;;14.10;68.94;101924.66;5051785;28;46196;-71
2023/05/20 01:37:41;;;;;;;;;16.33;14.67;;;;;14.16;70.06;101931.50;5059539;28;45398;-71
2023/05/20 01:40:08;;;;;;;;;14.33;10.33;;;;;14.14;69.08;101926.22;5059167;28;45874;-71
2023/05/20 01:42:35;;;;;;;;;18.67;12.33;;;;;14.13;69.00;101927.19;5059940;28;45760;-72
2023/05/20 01:45:00;;;;;;;;;12.00;9.67;;;;;14.13;69.97;101921.00;5052992;28;45326;-72
2023/05/20 01:47:25;;;;;;;;;12.00;10.33;;;;;14.13;69.79;101924.53;5059073;28;45238;-72
2023/05/20 01:49:53;;;;;;;;;16.25;13.50;;;;;14.12;68.82;101925.44;5055229;28;45318;-72
2023/05/20 01:52:19;;;;;;;;;13.00;12.00;;;;;14.09;69.03;101920.25;5052855;28;45372;-72
2023/05/20 01:54:49;;;;;;;;;16.67;12.67;;;;;14.10;69.87;101925.50;5058665;28;45301;-71
2023/05/20 01:57:16;;;;;;;;;13.00;12.00;;;;;14.08;69.51;101918.53;5055902;28;45992;-71
2023/05/20 01:59:42;;;;;;;;;16.33;15.00;;;;;14.01;68.70;101912.59;5057155;28;45411;-71
2023/05/20 02:02:08;;;;;;;;;14.00;12.33;;;;;13.96;71.49;101906.63;5045644;28;45489;-70
2023/05/20 02:04:33;;;;;;;;;15.67;14.00;;;;;13.99;69.66;101914.47;5060740;28;45499;-71
2023/05/20 02:06:58;;;;;;;;;14.33;10.33;;;;;13.97;70.28;101913.66;5059601;28;45435;-70
2023/05/20 02:09:24;;;;;;;;;12.67;12.33;;;;;13.56;69.63;101840.16;5039595;28;45382;-72
2023/05/20 02:11:49;;;;;;;;;15.67;14.67;;;;;13.92;70.78;101906.81;5054358;28;45378;-71
2023/05/20 02:14:15;;;;;;;;;18.00;14.33;;;;;13.83;70.08;101907.22;5051247;28;45366;-72
2023/05/20 02:16:40;;;;;;;;;17.33;15.00;;;;;13.80;71.59;101905.56;5062511;28;45219;-72
2023/05/20 02:19:11;;;;;;;;;18.67;15.67;;;;;13.80;70.33;101908.22;5061253;28;45517;-72
2023/05/20 02:21:38;;;;;;;;;18.67;15.67;;;;;13.76;70.40;101903.97;5058848;28;45471;-71
2023/05/20 02:24:04;;;;;;;;;16.00;15.00;;;;;13.75;70.68;101906.69;5045471;28;45260;-73
2023/05/20 02:26:29;;;;;;;;;14.33;14.00;;;;;13.72;71.33;101907.69;5050160;28;45346;-73
2023/05/20 02:28:55;;;;;;;;;15.33;15.33;;;;;13.72;71.95;101909.47;5061362;28;45251;-73
2023/05/20 02:31:21;;;;;;;;;15.75;14.50;;;;;13.53;71.42;101877.50;5063691;28;45495;-73
2023/05/20 02:33:47;;;;;;;;;17.50;15.50;;;;;13.65;71.35;101908.00;5062140;28;45511;-72
2023/05/20 02:36:12;;;;;;;;;16.75;14.25;;;;;13.63;71.54;101908.06;5071065;27;45371;-73
2023/05/20 02:38:38;;;;;;;;;12.50;11.25;;;;;13.60;71.25;101908.22;5052486;27;45392;-72
2023/05/20 02:41:03;;;;;;;;;22.67;17.00;;;;;13.57;71.72;101911.00;5080242;27;45988;-72
2023/05/20 02:43:30;;;;;;;;;16.75;16.00;;;;;13.58;72.34;101907.38;5059167;28;46004;-73
2023/05/20 02:45:56;;;;;;;;;20.50;19.75;;;;;13.37;72.03;101876.41;5060646;28;45808;-72
2023/05/20 02:48:21;;;;;;;;;23.33;16.67;;;;;13.55;72.88;101913.72;5070385;28;45863;-73
2023/05/20 02:50:47;;;;;;;;;12.67;12.33;;;;;13.53;71.91;101906.72;5060293;27;45331;-73
2023/05/20 02:53:12;;;;;;;;;15.33;13.00;;;;;13.52;72.59;101903.22;5059556;28;45957;-72
2023/05/20 02:55:39;;;;;;;;;24.33;14.00;;;;;13.50;74.43;101902.41;5066304;27;45463;-72
2023/05/20 02:58:07;;;;;;;;;16.00;14.50;;;;;13.49;74.29;101890.06;5074490;27;45560;-72
2023/05/20 03:00:39;;;;;;;;;17.75;15.75;;;;;13.50;74.63;101898.88;5056870;28;45351;-72
2023/05/20 03:03:06;;;;;;;;;22.00;15.67;;;;;13.50;74.49;101901.53;5063313;28;45522;-72
2023/05/20 03:05:32;;;;;;;;;18.00;15.50;;;;;13.47;74.01;101899.03;5067948;28;45698;-72
2023/05/20 03:07:57;;;;;;;;;20.75;16.25;;;;;13.46;73.81;101899.94;5058996;28;45467;-73
2023/05/20 03:10:22;;;;;;;;;16.75;16.25;;;;;13.48;74.25;101896.28;5061664;28;45416;-73
2023/05/20 03:12:50;;;;;;;;;17.75;16.25;;;;;13.48;75.67;101890.97;5056286;28;45388;-73
2023/05/20 03:15:18;;;;;;;;;19.33;16.33;;;;;13.50;74.64;101894.44;5062195;28;45406;-72
2023/05/20 03:17:43;;;;;;;;;17.00;14.00;;;;;13.41;73.97;101880.69;5052275;28;45491;-72
2023/05/20 03:20:11;;;;;;;;;19.75;17.00;;;;;13.48;74.39;101892.78;5060531;27;45311;-72
2023/05/20 03:22:36;;;;;;;;;23.25;20.75;;;;;13.45;72.65;101887.56;5060260;28;46497;-72
2023/05/20 03:25:03;;;;;;;;;16.00;12.25;;;;;13.42;75.72;101877.94;5058673;28;45286;-73
2023/05/20 03:27:28;;;;;;;;;21.67;20.33;;;;;13.44;74.85;101876.09;5059786;28;45251;-72
2023/05/20 03:29:54;;;;;;;;;19.00;16.00;;;;;13.51;75.63;101887.34;5056174;28;45172;-72
2023/05/20 03:32:19;;;;;;;;;23.00;17.00;;;;;13.29;74.79;101851.94;5045209;28;46102;-72
2023/05/20 03:34:45;;;;;;;;;18.50;18.00;;;;;13.50;75.95;101877.63;5055990;28;45410;-73
2023/05/20 03:37:11;;;;;;;;;17.50;17.25;;;;;13.34;74.91;101839.34;5064931;28;45251;-73
2023/05/20 03:39:36;;;;;;;;;20.25;16.00;;;;;13.53;75.56;101873.06;5062884;28;45246;-72
2023/05/20 03:42:01;;;;;;;;;28.50;22.25;;;;;13.50;75.85;101867.88;5051172;28;45260;-72
2023/05/20 03:44:27;;;;;;;;;18.25;17.50;;;;;13.51;74.84;101864.25;5059380;28;45726;-72
2023/05/20 03:46:52;;;;;;;;;19.00;17.25;;;;;13.53;74.77;101858.88;5060723;28;45292;-73
2023/05/20 03:49:18;;;;;;;;;18.00;16.25;;;;;13.52;75.31;101860.69;5053955;28;45536;-72
2023/05/20 03:51:43;;;;;;;;;12.50;12.25;;;;;13.54;75.94;101869.47;5056817;28;45985;-73
2023/05/20 03:54:08;;;;;;;;;27.00;21.25;;;;;13.55;75.70;101865.88;5055505;28;45376;-72
2023/05/20 03:56:35;;;;;;;;;21.25;17.75;;;;;13.57;74.02;101865.81;5052639;28;45370;-73
2023/05/20 03:59:00;;;;;;;;;22.50;19.50;;;;;13.49;76.44;101863.47;5059096;28;45417;-73
2023/05/20 04:01:26;;;;;;;;;19.75;18.50;;;;;13.54;74.20;101863.28;5056939;28;45530;-72
2023/05/20 04:03:51;;;;;;;;;23.50;16.25;;;;;13.50;76.39;101865.22;5063651;28;45306;-72
2023/05/20 04:06:17;;;;;;;;;18.50;15.25;;;;;13.54;75.70;101873.91;5059430;28;45415;-73
2023/05/20 04:08:42;;;;;;;;;19.00;18.33;;;;;13.49;75.26;101874.09;5057589;28;45441;-73
2023/05/20 04:11:08;;;;;;;;;17.25;16.25;;;;;13.51;75.12;101871.41;5072491;28;47077;-73
2023/05/20 04:13:33;;;;;;;;;23.50;18.75;;;;;13.43;74.28;101855.75;5060927;28;45293;-72
2023/05/20 04:16:00;;;;;;;;;20.50;19.25;;;;;13.45;74.31;101861.88;5061509;28;45472;-72
2023/05/20 04:18:28;;;;;;;;;24.00;20.75;;;;;13.46;74.88;101866.25;5054599;28;45741;-73
2023/05/20 04:20:58;;;;;;;;;22.75;18.00;;;;;13.45;75.94;101864.53;5047823;28;46428;-73
2023/05/20 04:23:24;;;;;;;;;20.00;17.00;;;;;13.45;76.28;101850.38;5052212;28;45235;-72
2023/05/20 04:25:49;;;;;;;;;23.25;18.00;;;;;13.53;75.43;101866.88;5056625;28;45333;-72
2023/05/20 04:28:15;;;;;;;;;23.75;20.25;;;;;13.51;74.40;101866.91;5080340;27;45754;-73
2023/05/20 04:30:41;;;;;;;;;21.75;17.75;;;;;13.49;75.18;101858.16;5046375;28;45922;-72
2023/05/20 04:33:07;;;;;;;;;24.00;22.75;;;;;13.42;74.52;101851.38;5057199;28;45495;-73
2023/05/20 04:35:33;;;;;;;;;26.00;21.00;;;;;13.46;74.91;101862.72;5055310;28;45735;-73
2023/05/20 04:37:59;;;;;;;;;25.00;19.75;;;;;13.30;76.35;101829.75;5044320;28;45520;-72
2023/05/20 04:40:26;;;;;;;;;21.50;18.00;;;;;13.50;76.64;101865.22;5054064;28;45952;-72
2023/05/20 04:42:51;;;;;;;;;26.75;19.25;;;;;13.32;75.53;101830.56;5057884;28;45328;-73
2023/05/20 04:45:17;;;;;;;;;22.50;21.25;;;;;13.54;74.33;101871.25;5052028;28;45400;-73
2023/05/20 04:47:44;;;;;;;;;19.00;15.25;;;;;13.57;75.20;101863.16;5049609;28;45405;-73
2023/05/20 04:50:11;;;;;;;;;22.00;21.25;;;;;13.34;74.04;101823.41;5048943;28;47815;-73
2023/05/20 04:52:44;;;;;;;;;24.75;19.00;;;;;13.54;74.72;101858.84;5058115;28;45305;-73
2023/05/20 04:55:11;;;;;;;;;24.75;21.00;;;;;13.52;75.82;101863.34;5059752;28;46801;-72
2023/05/20 04:57:40;;;;;;;;;30.75;21.25;;;;;13.51;76.09;101860.75;5060553;28;45165;-72
2023/05/20 05:00:07;;;;;;;;;21.50;21.25;;;;;13.34;76.40;101828.72;5052563;28;46097;-72
2023/05/20 05:02:33;;;;;;;;;25.00;23.50;;;;;13.56;76.30;101864.06;5059494;28;45569;-72
2023/05/20 05:04:59;;;;;;;;;26.50;22.25;;;;;13.58;75.78;101865.72;5058132;28;45500;-72
2023/05/20 05:07:24;;;;;;;;;25.25;23.25;;;;;13.53;75.05;101856.22;5052267;28;45305;-73
2023/05/20 05:09:50;;;;;;;;;20.50;19.00;;;;;13.57;76.28;101863.16;5057110;28;45584;-73
2023/05/20 05:12:15;;;;;;;;;25.00;22.25;;;;;13.32;76.44;101827.91;5055894;28;45416;-72
2023/05/20 05:14:41;;;;;;;;;24.00;22.25;;;;;13.59;75.70;101863.94;5055311;28;45163;-72
2023/05/20 05:17:06;;;;;;;;;24.75;22.00;;;;;13.58;76.73;101848.91;5058971;28;45257;-72
2023/05/20 05:19:32;;;;;;;;;22.00;19.00;;;;;13.39;77.21;101818.75;5055256;28;45963;-72
2023/05/20 05:21:57;;;;;;;;;25.50;23.75;;;;;13.61;76.08;101845.28;5057466;28;45491;-73
2023/05/20 05:24:23;;;;;;;;;27.50;22.00;;;;;13.64;75.71;101850.47;5053526;28;45421;-73
2023/05/20 05:26:53;;;;;;;;;23.00;19.75;;;;;13.67;77.75;101845.88;5054862;28;45427;-72
2023/05/20 05:29:18;;;;;;;;;24.75;18.75;;;;;13.75;77.19;101845.53;5046283;28;46066;-72
2023/05/20 05:31:44;;;;;;;;;25.50;22.00;;;;;13.79;75.99;101852.44;5050913;28;45415;-72
2023/05/20 05:34:09;;;;;;;;;25.25;21.75;;;;;13.79;76.71;101852.44;5054462;28;45372;-72
2023/05/20 05:36:35;;;;;;;;;25.75;24.25;;;;;13.58;75.60;101817.88;5058327;28;45700;-72
2023/05/20 05:39:00;;;;;;;;;23.25;22.00;;;;;13.83;76.98;101857.56;5058709;28;47780;-73
2023/05/20 05:41:26;;;;;;;;;22.75;20.75;;;;;13.74;74.93;101847.34;5059894;28;45437;-73
2023/05/20 05:43:51;;;;;;;;;23.75;21.75;;;;;13.88;75.94;101863.53;5061881;28;45452;-73
2023/05/20 05:46:17;;;;;;;;;23.25;18.75;;;;;13.83;74.97;101860.25;5057586;28;45449;-72
2023/05/20 05:48:47;;;;;;;;;21.50;21.50;;;;;13.89;76.75;101854.66;5061277;28;46315;-72
2023/05/20 05:51:13;;;;;;;;;25.25;23.25;;;;;13.92;76.85;101865.16;5060617;28;45437;-73
2023/05/20 05:53:39;;;;;;;;;21.25;18.00;;;;;13.90;75.26;101859.03;5058582;28;45278;-73
2023/05/20 05:56:04;;;;;;;;;24.50;22.00;;;;;13.89;75.07;101854.66;5057622;28;45511;-73
2023/05/20 05:58:31;;;;;;;;;22.75;17.00;;;;;13.88;75.08;101854.69;5053587;28;46332;-73
2023/05/20 06:00:57;;;;;;;;;21.00;20.25;;;;;13.91;76.07;101851.91;5064525;28;45477;-73
2023/05/20 06:03:23;;;;;;;;;23.75;20.00;;;;;13.92;74.95;101843.00;5063065;28;45471;-72
2023/05/20 06:05:48;;;;;;;;;27.25;24.00;;;;;14.00;76.65;101839.06;5058467;28;46081;-73
2023/05/20 06:08:14;;;;;;;;;21.00;18.75;;;;;14.01;74.60;101837.25;5063495;28;45776;-73
2023/05/20 06:10:39;;;;;;;;;25.00;19.75;;;;;13.99;75.87;101825.84;5050354;28;45231;-72
2023/05/20 06:13:05;;;;;;;;;23.00;22.75;;;;;14.09;76.25;101835.13;5053062;28;45344;-72
2023/05/20 06:15:30;;;;;;;;;21.75;19.50;;;;;14.14;73.62;101840.22;5077052;27;45453;-72
2023/05/20 06:17:56;;;;;;;;;22.00;20.75;;;;;14.06;74.28;101832.63;5061774;28;46471;-72
2023/05/20 06:20:21;;;;;;;;;24.25;22.25;;;;;13.99;75.50;101812.53;5057427;28;45625;-72
2023/05/20 06:22:46;;;;;;;;;27.50;22.25;;;;;14.24;76.40;101838.88;5064205;28;45303;-72
2023/05/20 06:25:13;;;;;;;;;30.75;22.50;;;;;14.31;73.53;101838.53;5062306;28;45568;-72
2023/05/20 06:27:38;;;;;;;;;20.50;18.75;;;;;14.35;74.44;101823.31;5059650;28;45435;-72
2023/05/20 06:30:04;;;;;;;;;21.25;19.00;;;;;14.37;73.27;101824.97;5054890;27;45373;-72
2023/05/20 06:32:30;;;;;;;;;26.00;22.00;;;;;14.46;74.44;101834.34;5061673;28;45261;-73
2023/05/20 06:34:55;;;;;;;;;20.50;20.50;;;;;14.57;74.68;101842.69;5051110;28;45345;-73
2023/05/20 06:37:23;;;;;;;;;18.50;16.50;;;;;14.58;73.99;101833.75;5051283;28;46351;-72
2023/05/20 06:39:52;;;;;;;;;21.33;18.00;;;;;14.66;74.87;101828.91;5059770;28;45356;-73
2023/05/20 06:42:18;;;;;;;;;20.25;20.25;;;;;14.75;73.09;101824.97;5062209;28;45511;-73
2023/05/20 06:44:44;;;;;;;;;21.75;19.50;;;;;14.80;74.06;101822.94;5058861;28;45418;-73
2023/05/20 06:47:10;;;;;;;;;25.00;19.00;;;;;14.90;73.19;101814.44;5070494;27;45950;-72
2023/05/20 06:49:36;;;;;;;;;22.75;21.00;;;;;14.98;72.64;101816.72;5055130;28;45267;-73
2023/05/20 06:52:01;;;;;;;;;22.25;21.00;;;;;14.84;70.97;101780.09;5053539;28;45247;-72
2023/05/20 06:54:26;;;;;;;;;23.25;20.00;;;;;15.09;69.82;101817.03;5061346;28;45402;-72
2023/05/20 06:56:52;;;;;;;;;20.75;20.75;;;;;15.17;72.66;101822.88;5060623;28;46198;-73
2023/05/20 06:59:17;;;;;;;;;19.75;19.25;;;;;15.29;73.86;101821.38;5054516;28;45460;-73
2023/05/20 07:01:43;;;;;;;;;20.75;18.50;;;;;15.34;69.51;101812.22;5057835;28;45463;-73
2023/05/20 07:04:08;;;;;;;;;25.00;20.00;;;;;15.41;70.82;101810.13;5071825;28;46187;-73
2023/05/20 07:06:33;;;;;;;;;24.25;21.00;;;;;15.43;68.02;101814.41;5049021;28;45405;-73
2023/05/20 07:08:59;;;;;;;;;24.00;19.00;;;;;15.43;68.37;101813.56;5053262;28;45373;-73
2023/05/20 07:11:25;;;;;;;;;27.75;23.25;;;;;15.49;67.10;101808.81;5057085;28;45608;-73
2023/05/20 07:13:50;;;;;;;;;21.00;21.00;;;;;15.49;67.28;101818.59;5060600;28;45397;-73
2023/05/20 07:16:16;;;;;;;;;20.50;20.50;;;;;15.49;69.58;101818.59;5065355;28;45460;-71
2023/05/20 07:18:41;;;;;;;;;27.67;21.33;;;;;15.40;69.75;101774.59;5070062;28;45497;-71
2023/05/20 07:21:07;;;;;;;;;22.33;20.67;;;;;15.76;68.92;101816.31;5042392;28;45219;-72
2023/05/20 07:23:32;;;;;;;;;20.50;19.25;;;;;15.92;69.05;101814.56;5041698;28;45243;-72
2023/05/20 07:25:57;;;;;;;;;22.00;20.00;;;;;16.04;66.42;101809.41;5045845;28;45444;-72
2023/05/20 07:28:23;;;;;;;;;26.50;20.25;;;;;16.09;65.97;101806.50;5060179;28;45395;-72
2023/05/20 07:30:51;;;;;;;;;22.50;19.75;;;;;16.21;66.82;101802.31;5042146;28;45579;-72
2023/05/20 07:33:18;;;;;;;;;24.67;21.00;;;;;16.44;66.59;101796.56;5054063;28;45439;-73
2023/05/20 07:35:44;;;;;;;;;25.50;22.00;;;;;16.48;65.10;101766.06;5059113;28;46339;-72
2023/05/20 07:38:11;;;;;;;;;21.75;20.00;;;;;16.84;63.79;101804.09;5062549;28;45435;-72
2023/05/20 07:40:39;;;;;;;;;20.33;19.67;;;;;16.81;62.46;101792.72;5060572;28;45332;-72
2023/05/20 07:43:06;;;;;;;;;26.00;20.00;;;;;16.60;61.96;101781.44;5060827;28;45673;-72
2023/05/20 07:45:33;;;;;;;;;22.00;19.67;;;;;16.72;62.89;101794.09;5057030;28;47208;-72
2023/05/20 07:47:58;;;;;;;;;26.33;22.00;;;;;16.60;62.50;101762.72;5052982;28;45522;-72
2023/05/20 07:50:24;;;;;;;;;28.50;22.00;;;;;16.81;62.37;101787.38;5073166;28;45489;-72
2023/05/20 07:52:49;;;;;;;;;22.33;20.00;;;;;16.72;62.15;101783.41;5044757;28;45393;-72
2023/05/20 07:55:15;;;;;;;;;21.00;18.33;;;;;16.94;63.39;101788.38;5057487;28;45765;-73
2023/05/20 07:57:40;;;;;;;;;20.67;18.67;;;;;17.10;62.37;101781.19;5062350;28;45233;-73
2023/05/20 08:00:07;;;;;;;;;24.33;23.00;;;;;17.26;62.77;101776.66;5063329;28;45738;-73
2023/05/20 08:02:32;;;;;;;;;17.67;17.67;;;;;17.30;61.84;101770.19;5057998;28;45235;-73
2023/05/20 08:04:58;;;;;;;;;20.33;16.00;;;;;17.58;60.52;101764.91;5058669;28;46499;-72
2023/05/20 08:07:23;;;;;;;;;20.00;19.00;;;;;17.61;60.33;101750.50;5067458;28;45270;-72
2023/05/20 08:09:49;;;;;;;;;21.00;20.67;;;;;17.73;61.18;101764.94;5068544;28;45467;-73
2023/05/20 08:12:14;;;;;;;;;25.25;20.50;;;;;17.78;60.39;101762.81;5058863;28;45621;-73
2023/05/20 08:14:39;;;;;;;;;18.33;17.67;;;;;18.01;61.19;101773.84;5066127;28;45329;-73
2023/05/20 08:17:05;;;;;;;;;23.33;19.00;;;;;18.09;61.40;101752.81;5060760;28;45196;-72
2023/05/20 08:19:30;;;;;;;;;14.33;13.00;;;;;18.26;59.28;101759.75;5063023;28;45443;-73
2023/05/20 08:21:55;;;;;;;;;17.00;16.00;;;;;18.44;60.48;101771.09;5059202;28;45400;-72
2023/05/20 08:24:21;;;;;;;;;20.00;17.67;;;;;18.60;60.04;101764.69;5059617;28;46469;-73
2023/05/20 08:26:46;;;;;;;;;16.33;16.00;;;;;18.70;58.44;101754.22;5058118;28;45251;-72
2023/05/20 08:29:12;;;;;;;;;26.00;21.67;;;;;18.82;59.22;101758.75;5060660;28;45327;-73
2023/05/20 08:31:37;;;;;;;;;19.00;15.67;;;;;18.94;58.14;101757.97;5056994;28;45432;-73
2023/05/20 08:34:02;;;;;;;;;14.00;12.67;;;;;18.99;55.55;101758.50;5049958;28;45490;-73
2023/05/20 08:36:28;;;;;;;;;17.00;14.67;;;;;18.98;57.74;101740.69;5058565;28;45777;-72
2023/05/20 08:38:54;;;;;;;;;19.67;16.33;;;;;19.13;55.46;101745.03;5063979;28;45603;-72
2023/05/20 08:41:21;;;;;;;;;18.00;16.33;;;;;19.26;55.70;101747.75;5059061;28;45380;-73
2023/05/20 08:43:48;;;;;;;;;15.33;14.67;;;;;19.32;55.46;101744.63;5059544;28;45321;-72
2023/05/20 08:46:14;;;;;;;;;18.33;15.67;;;;;19.39;55.10;101745.06;5058226;28;45915;-73
2023/05/20 08:48:40;;;;;;;;;20.00;18.67;;;;;19.39;56.17;101716.41;5072532;27;45362;-72
2023/05/20 08:51:09;;;;;;;;;12.67;12.33;;;;;19.57;55.11;101738.44;5057731;28;45175;-73
2023/05/20 08:53:35;;;;;;;;;16.67;15.67;;;;;19.77;55.63;101735.22;5060099;28;46072;-73
2023/05/20 08:56:02;;;;;;;;;16.33;13.67;;;;;19.96;54.65;101732.94;5054908;28;45452;-73
2023/05/20 08:58:31;;;;;;;;;13.33;13.33;;;;;20.08;53.28;101731.22;5059756;28;45498;-72
2023/05/20 09:01:00;;;;;;;;;12.67;11.00;;;;;20.26;52.89;101738.84;5060979;28;45441;-72
2023/05/20 09:03:26;;;;;;;;;11.67;11.00;;;;;20.44;54.48;101735.78;5056389;27;46446;-73
2023/05/20 09:05:52;;;;;;;;;13.00;12.00;;;;;20.46;51.97;101733.81;5052069;27;45599;-73
2023/05/20 09:08:23;;;;;;;;;11.00;10.67;;;;;20.57;51.36;101726.69;5048903;28;45386;-73
2023/05/20 09:10:51;;;;;;;;;11.33;9.67;;;;;20.71;51.49;101728.38;5061632;28;45536;-73
2023/05/20 09:13:16;;;;;;;;;10.67;10.00;;;;;20.79;51.12;101723.25;5058017;28;45473;-72
2023/05/20 09:15:41;;;;;;;;;10.67;10.33;;;;;20.82;50.74;101716.78;5055652;28;45313;-73
2023/05/20 09:18:07;;;;;;;;;13.33;11.67;;;;;21.07;50.96;101730.09;5059350;28;45481;-72
2023/05/20 09:20:36;;;;;;;;;10.00;9.00;;;;;21.05;50.98;101702.44;5048295;28;45654;-73
2023/05/20 09:23:03;;;;;;;;;7.33;6.67;;;;;21.21;50.27;101717.31;5051626;28;45396;-72
2023/05/20 09:25:28;;;;;;;;;10.00;9.00;;;;;21.33;49.18;101725.44;5051944;28;45479;-72
2023/05/20 09:27:54;;;;;;;;;7.67;7.67;;;;;21.31;48.28;101706.72;5059049;28;45318;-73
2023/05/20 09:30:22;;;;;;;;;11.00;8.33;;;;;21.40;50.02;101719.44;5055656;28;46031;-72
2023/05/20 09:32:58;;;;;;;;;10.00;7.33;;;;;21.39;49.56;101706.13;5058803;28;45548;-73
2023/05/20 09:35:26;;;;;;;;;12.67;10.33;;;;;21.40;47.48;101697.91;5052174;28;45278;-73
2023/05/20 09:37:54;;;;;;;;;12.33;9.67;;;;;21.42;48.37;101701.34;5062282;28;45237;-73
2023/05/20 09:40:27;;;;;;;;;12.00;10.00;;;;;21.16;48.24;101637.97;5045997;28;45427;-73
2023/05/20 09:42:56;;;;;;;;;11.67;11.33;;;;;21.63;48.72;101693.41;5063622;28;48213;-73
2023/05/20 09:45:23;;;;;;;;;8.67;8.67;;;;;21.80;48.63;101699.19;5054910;28;45406;-73
2023/05/20 09:47:51;;;;;;;;;12.67;10.33;;;;;21.78;48.66;101687.69;5049730;28;45322;-73
2023/05/20 09:50:19;;;;;;;;;10.33;9.67;;;;;21.82;48.07;101696.38;5057751;28;45277;-73
2023/05/20 09:52:46;;;;;;;;;7.00;7.00;;;;;21.77;47.38;101680.56;5058463;28;45620;-73
2023/05/20 09:55:13;;;;;;;;;11.00;11.00;;;;;21.81;47.60;101690.13;5061862;28;45468;-73
2023/05/20 09:57:39;;;;;;;;;11.67;9.67;;;;;21.89;48.92;101686.84;5059155;28;45321;-73
2023/05/20 10:00:07;;;;;;;;;8.67;8.33;;;;;21.98;47.47;101679.88;5055589;28;45239;-73
2023/05/20 10:02:34;;;;;;;;;9.33;9.00;;;;;22.02;45.98;101679.47;5058912;28;46067;-74
2023/05/20 10:05:05;;;;;;;;;9.00;9.00;;;;;22.11;47.34;101680.59;5061101;28;45445;-73
2023/05/20 10:07:40;;;;;;;;;10.67;10.67;;;;;22.11;46.88;101675.19;5059207;28;45256;-74
2023/05/20 10:10:47;;;;;;;;;6.33;6.33;;;;;21.80;47.00;101606.75;5045003;28;45240;-73
2023/05/20 10:13:25;;;;;;;;;8.33;7.67;;;;;22.23;45.99;101668.78;5050828;27;45187;-73
2023/05/20 10:16:41;;;;;;;;;7.67;7.67;;;;;22.30;46.69;101656.53;5052718;28;46537;-74
2023/05/20 10:19:23;;;;;;;;;6.00;6.00;;;;;22.51;45.77;101662.81;5018320;28;45436;-74
2023/05/20 10:22:25;;;;;;;;;9.00;9.00;;;;;22.57;45.69;101650.69;5047320;28;45463;-73
2023/05/20 10:25:05;;;;;;;;;10.33;6.00;;;;;22.78;45.40;101652.44;5045201;28;47297;-74
2023/05/20 10:27:44;;;;;;;;;10.00;9.00;;;;;22.91;43.51;101659.47;5045618;28;45343;-72
2023/05/20 10:30:18;;;;;;;;;7.00;5.00;;;;;23.01;44.99;101653.19;5051071;28;45355;-73
2023/05/20 10:32:56;;;;;;;;;6.67;5.67;;;;;23.00;44.37;101651.47;5057326;28;45630;-74
2023/05/20 10:35:26;;;;;;;;;6.67;6.67;;;;;23.02;43.66;101663.00;5051290;28;47152;-73
2023/05/20 10:37:54;;;;;;;;;48.50;39.50;;;;;22.96;44.57;101649.16;5055795;28;45306;-74
2023/05/20 10:40:21;;;;;;;;;16.67;12.67;;;;;22.93;43.87;101646.75;5048902;28;45280;-74
2023/05/20 10:42:47;;;;;;;;;46.25;38.00;;;;;22.93;44.22;101644.91;5062032;28;45408;-74
2023/05/20 10:45:36;;;;;;;;;41.75;37.00;;;;;23.08;44.22;101651.66;5061079;28;45381;-73
2023/05/20 10:48:01;;;;;;;;;37.50;34.75;;;;;23.02;44.18;101627.91;5067538;28;45385;-73
2023/05/20 10:50:39;;;;;;;;;66.50;53.25;;;;;23.14;43.32;101634.94;5061687;28;45526;-73
2023/05/20 10:53:06;;;;;;;;;30.00;28.67;;;;;23.24;41.98;101635.84;5063985;28;45336;-74
2023/05/20 10:55:36;;;;;;;;;27.67;26.67;;;;;23.15;42.76;101611.50;5057416;28;48614;-74
2023/05/20 10:58:02;;;;;;;;;17.33;12.33;;;;;23.32;43.60;101619.84;5057887;28;45369;-74
2023/05/20 11:00:28;;;;;;;;;15.67;14.00;;;;;23.48;43.50;101632.88;5056367;28;45556;-74
2023/05/20 11:02:55;;;;;;;;;79.50;62.25;;;;;23.56;43.43;101621.41;5061366;28;45417;-73
2023/05/20 11:05:20;;;;;;;;;7.33;5.67;;;;;23.50;41.96;101617.41;5074605;28;45325;-73
2023/05/20 11:07:46;;;;;;;;;15.00;12.00;;;;;23.55;41.26;101608.91;5059103;28;46794;-73
2023/05/20 11:10:11;;;;;;;;;14.67;13.00;;;;;23.74;43.92;101617.06;5057379;28;46535;-74